Time;durP1;ratioP1;P1;durP2;ratioP2;P2;SDS_P1;SDS_P2;PMS_P1;PMS_P2;Temp;Humidity;BMP_temperature;BMP_pressure;BME280_temperature;BME280_humidity;BME280_pressure;Samples;Min_cycle;Max_cycle;Signal;HPM_P1;HPM_P2
2021/11/24 00:01:12;;;;;;;17.63;12.53;;;;;;;6.20;51.06;98904.03;8217778;28;20231;-84
2021/11/24 00:05:16;;;;;;;17.93;12.40;;;;;;;6.13;51.21;98896.41;8217836;28;20246;-84
2021/11/24 00:09:20;;;;;;;18.57;11.83;;;;;;;6.09;51.23;98900.75;8218214;28;20553;-84
2021/11/24 00:13:23;;;;;;;16.80;11.90;;;;;;;6.22;51.00;98894.59;8218285;28;20242;-84
2021/11/24 00:17:26;;;;;;;14.90;11.67;;;;;;;6.34;51.05;98891.03;8218526;28;20234;-84
2021/11/24 00:21:29;;;;;;;16.47;10.10;;;;;;;6.28;51.17;98887.66;8224657;28;20257;-84
2021/11/24 00:25:34;;;;;;;14.97;10.23;;;;;;;6.34;51.20;98895.31;8224655;28;20519;-84
2021/11/24 00:29:37;;;;;;;14.27;10.03;;;;;;;6.31;51.30;98879.94;8224734;28;20234;-84
2021/11/24 00:33:40;;;;;;;15.03;10.33;;;;;;;6.36;51.03;98881.56;8224605;28;20237;-84
2021/11/24 00:37:43;;;;;;;13.33;9.83;;;;;;;6.45;51.32;98878.88;8224202;28;20541;-84
2021/11/24 00:41:48;;;;;;;15.60;9.03;;;;;;;6.40;51.51;98874.66;8224419;28;20265;-84
2021/11/24 00:45:53;;;;;;;12.80;9.33;;;;;;;6.44;51.49;98877.16;8224508;28;20239;-84
2021/11/24 00:49:56;;;;;;;12.80;9.27;;;;;;;6.52;51.40;98866.78;8224039;28;20269;-85
2021/11/24 00:53:59;;;;;;;13.33;9.27;;;;;;;6.44;52.04;98873.75;8223963;28;20234;-84
2021/11/24 00:58:04;;;;;;;12.00;8.80;;;;;;;6.53;51.68;98865.03;8223751;28;20246;-85
2021/11/24 01:02:07;;;;;;;12.13;9.40;;;;;;;6.41;51.88;98855.78;8223131;28;20233;-83
2021/11/24 01:06:11;;;;;;;13.67;9.30;;;;;;;6.55;51.89;98858.16;8222792;28;20242;-84
2021/11/24 01:10:16;;;;;;;11.23;8.83;;;;;;;6.51;52.02;98854.78;8223194;28;20242;-83
2021/11/24 01:14:21;;;;;;;14.13;9.53;;;;;;;6.49;51.84;98841.06;8222797;28;20298;-83
2021/11/24 01:18:24;;;;;;;14.27;9.50;;;;;;;6.46;52.36;98846.28;8222928;28;20235;-83
2021/11/24 01:22:28;;;;;;;17.03;9.17;;;;;;;6.49;52.57;98864.22;8223336;28;20235;-84
2021/11/24 01:26:31;;;;;;;11.53;9.03;;;;;;;6.43;52.42;98841.16;8222956;28;20511;-83
2021/11/24 01:30:36;;;;;;;11.43;9.07;;;;;;;6.43;52.54;98851.44;8222639;28;20238;-83
2021/11/24 01:34:39;;;;;;;14.67;9.00;;;;;;;6.49;52.74;98843.66;8222872;28;20437;-83
2021/11/24 01:38:42;;;;;;;12.53;8.37;;;;;;;6.54;52.70;98849.59;8222809;28;20234;-83
2021/11/24 01:42:45;;;;;;;12.07;8.87;;;;;;;6.55;52.62;98838.44;8222902;28;20549;-82
2021/11/24 01:46:53;;;;;;;11.27;8.37;;;;;;;6.61;52.52;98845.22;8224038;28;20242;-82
2021/11/24 01:50:58;;;;;;;11.50;8.63;;;;;;;6.55;52.78;98835.00;8222425;28;20343;-83
2021/11/24 01:55:01;;;;;;;10.43;8.80;;;;;;;6.72;52.65;98833.03;8222255;28;20399;-82
2021/11/24 01:59:04;;;;;;;11.23;8.40;;;;;;;6.62;52.68;98834.03;8229329;28;20241;-82
2021/11/24 02:03:09;;;;;;;12.03;8.70;;;;;;;6.72;52.55;98834.75;8221990;28;20425;-82
2021/11/24 02:07:12;;;;;;;13.47;9.20;;;;;;;6.75;52.43;98832.97;8221385;28;20550;-82
2021/11/24 02:11:15;;;;;;;11.00;8.50;;;;;;;6.69;52.53;98825.34;8221801;28;20234;-82
2021/11/24 02:15:19;;;;;;;11.17;8.27;;;;;;;6.68;52.61;98825.38;8221489;28;20253;-82
2021/11/24 02:19:31;;;;;;;11.63;9.07;;;;;;;6.66;52.72;98825.38;8221094;28;20245;-83
2021/11/24 02:23:35;;;;;;;11.47;9.10;;;;;;;6.72;52.68;98816.72;8221714;28;20421;-83
2021/11/24 02:27:38;;;;;;;12.37;9.37;;;;;;;6.72;52.34;98814.16;8221213;28;20243;-83
2021/11/24 02:31:42;;;;;;;14.73;9.73;;;;;;;6.71;52.39;98810.72;8221121;28;20235;-82
2021/11/24 02:35:45;;;;;;;14.73;10.53;;;;;;;6.80;52.35;98807.19;8220504;28;20323;-83
2021/11/24 02:39:50;;;;;;;12.33;9.87;;;;;;;6.69;52.24;98796.19;8220416;28;20235;-83
2021/11/24 02:43:54;;;;;;;14.43;10.47;;;;;;;6.74;52.20;98786.66;8220113;28;20261;-83
2021/11/24 02:47:57;;;;;;;13.17;9.27;;;;;;;6.85;52.29;98788.22;8220323;28;20243;-83
2021/11/24 02:52:00;;;;;;;12.10;8.97;;;;;;;6.82;52.37;98785.69;8220509;28;20235;-83
2021/11/24 02:56:05;;;;;;;11.47;8.40;;;;;;;6.78;52.19;98778.88;8220107;28;20239;-83
2021/11/24 03:00:14;;;;;;;11.23;8.47;;;;;;;6.88;52.37;98778.72;8219889;28;20231;-83
2021/11/24 03:04:17;;;;;;;11.40;8.50;;;;;;;6.87;52.66;98774.44;8219471;28;20242;-84
2021/11/24 03:08:20;;;;;;;13.60;8.50;;;;;;;6.89;52.87;98770.97;8219408;28;20438;-83
2021/11/24 03:12:25;;;;;;;10.47;8.00;;;;;;;6.99;52.31;98772.53;8220047;28;20243;-83
2021/11/24 03:16:28;;;;;;;10.33;8.33;;;;;;;6.87;52.69;98761.56;8219619;28;20399;-83
2021/11/24 03:20:31;;;;;;;13.10;9.20;;;;;;;6.89;53.03;98765.81;8219599;28;20545;-83
2021/11/24 03:24:34;;;;;;;11.43;8.70;;;;;;;7.00;52.76;98753.59;8219528;28;20231;-83
2021/11/24 03:28:38;;;;;;;14.00;8.57;;;;;;;7.03;52.68;98756.13;8219337;28;20242;-83
2021/11/24 03:32:41;;;;;;;12.67;8.73;;;;;;;6.95;52.84;98755.44;8219396;28;20409;-83
2021/11/24 03:36:48;;;;;;;13.17;9.13;;;;;;;6.88;53.19;98747.84;8218271;28;20242;-83
2021/11/24 03:40:51;;;;;;;11.63;8.57;;;;;;;6.84;53.07;98742.72;8219206;28;20246;-82
2021/11/24 03:44:57;;;;;;;13.97;8.20;;;;;;;7.04;52.97;98742.41;8219312;28;20250;-83
2021/11/24 03:49:01;;;;;;;12.80;9.03;;;;;;;6.91;53.33;98730.63;8219279;28;20234;-82
2021/11/24 03:53:04;;;;;;;11.00;8.67;;;;;;;6.91;53.37;98722.00;8217368;28;20230;-82
2021/11/24 03:57:07;;;;;;;13.90;8.87;;;;;;;6.92;53.44;98719.41;8218566;28;20302;-82
2021/11/24 04:01:12;;;;;;;11.03;9.00;;;;;;;6.91;53.47;98717.75;8218554;28;20241;-82
2021/11/24 04:05:16;;;;;;;12.77;8.30;;;;;;;6.91;53.46;98727.16;8218690;28;20246;-83
2021/11/24 04:09:19;;;;;;;12.67;8.27;;;;;;;6.76;53.48;98720.53;8217826;28;20239;-83
2021/11/24 04:13:22;;;;;;;12.73;8.70;;;;;;;6.92;53.30;98726.31;8218229;28;20235;-82
2021/11/24 04:17:27;;;;;;;10.63;8.00;;;;;;;6.96;53.14;98718.50;8217802;28;20235;-83
2021/11/24 04:21:31;;;;;;;10.13;8.00;;;;;;;7.02;53.37;98720.94;8218212;28;20231;-83
2021/11/24 04:25:34;;;;;;;11.80;8.57;;;;;;;7.06;53.03;98714.00;8218033;28;20234;-83
2021/11/24 04:29:37;;;;;;;12.60;8.17;;;;;;;7.01;53.47;98708.13;8217825;28;20245;-83
2021/11/24 04:33:41;;;;;;;11.00;8.37;;;;;;;6.92;53.88;98722.00;8217869;28;20242;-82
2021/11/24 04:37:44;;;;;;;9.97;8.63;;;;;;;6.89;53.83;98710.91;8217965;28;20311;-83
2021/11/24 04:41:47;;;;;;;11.17;8.50;;;;;;;7.02;53.65;98713.22;8217852;28;20262;-82
2021/11/24 04:45:51;;;;;;;11.10;8.80;;;;;;;6.95;53.97;98711.66;8217572;28;20541;-84
2021/11/24 04:49:55;;;;;;;14.20;8.63;;;;;;;6.97;53.90;98707.31;8217858;28;20430;-84
2021/11/24 04:53:58;;;;;;;13.07;8.00;;;;;;;6.98;54.06;98711.59;8217937;28;20415;-84
2021/11/24 04:58:01;;;;;;;12.03;9.17;;;;;;;6.92;54.26;98709.13;8217790;28;20285;-84
2021/11/24 05:02:04;;;;;;;12.13;7.93;;;;;;;6.98;54.21;98715.88;8216965;28;20227;-84
2021/11/24 05:06:11;;;;;;;13.33;8.23;;;;;;;6.98;54.03;98713.31;8221688;28;20466;-83
2021/11/24 05:10:14;;;;;;;10.37;8.40;;;;;;;7.08;54.04;98711.41;8223424;28;20242;-84
2021/11/24 05:14:22;;;;;;;11.77;8.73;;;;;;;6.95;54.40;98716.81;8223297;28;20541;-83
2021/11/24 05:18:29;;;;;;;11.10;7.70;;;;;;;7.00;54.49;98707.25;8222985;28;20380;-82
2021/11/24 05:22:33;;;;;;;13.17;9.10;;;;;;;6.98;54.19;98708.16;8223064;28;20239;-83
2021/11/24 05:26:37;;;;;;;40.93;25.73;;;;;;;7.00;54.35;98709.81;8222694;28;20281;-82
2021/11/24 05:30:41;;;;;;;38.07;23.77;;;;;;;7.03;54.21;98703.78;8222609;28;20234;-82
2021/11/24 05:34:44;;;;;;;19.97;13.00;;;;;;;7.02;54.54;98710.63;8222406;28;20306;-82
2021/11/24 05:38:48;;;;;;;18.07;12.50;;;;;;;7.09;54.19;98713.97;8222500;28;20238;-82
2021/11/24 05:42:52;;;;;;;12.60;10.27;;;;;;;7.02;54.48;98710.63;8222496;28;20259;-82
2021/11/24 05:46:58;;;;;;;17.07;13.07;;;;;;;7.04;54.06;98708.91;8221784;28;20239;-82
2021/11/24 05:51:01;;;;;;;14.73;12.27;;;;;;;7.10;54.27;98702.81;8221970;28;20249;-83
2021/11/24 05:55:06;;;;;;;16.53;11.87;;;;;;;7.11;54.41;98703.66;8226215;28;20226;-83
2021/11/24 05:59:11;;;;;;;12.93;9.80;;;;;;;7.15;54.34;98689.81;8236848;28;20234;-83
2021/11/24 06:03:14;;;;;;;13.20;9.17;;;;;;;7.15;54.59;98698.41;8237740;28;20223;-84
2021/11/24 06:07:17;;;;;;;13.80;9.97;;;;;;;7.16;54.09;98694.09;8238535;28;20242;-83
2021/11/24 06:11:22;;;;;;;13.97;9.70;;;;;;;7.15;54.11;98690.66;8234271;28;20231;-84
2021/11/24 06:15:25;;;;;;;12.37;9.57;;;;;;;7.27;53.94;98697.31;8233502;28;20230;-85
2021/11/24 06:19:28;;;;;;;14.60;9.47;;;;;;;7.26;53.81;98687.06;8224095;28;20229;-84
2021/11/24 06:23:32;;;;;;;14.90;9.20;;;;;;;7.19;54.06;98697.44;8265313;28;20427;-85
2021/11/24 06:27:37;;;;;;;9.77;8.27;;;;;;;7.13;54.43;98696.75;8253022;28;20433;-85
2021/11/24 06:31:40;;;;;;;12.70;9.43;;;;;;;7.16;54.54;98688.94;8251542;28;20234;-84
2021/11/24 06:35:43;;;;;;;13.77;9.10;;;;;;;7.15;54.53;98687.25;8252899;28;20234;-85
2021/11/24 06:39:46;;;;;;;12.80;9.13;;;;;;;7.01;55.23;98665.19;8252871;28;20540;-84
2021/11/24 06:43:51;;;;;;;16.67;12.00;;;;;;;7.19;54.37;98676.84;8253085;28;20229;-84
2021/11/24 06:47:54;;;;;;;15.87;10.80;;;;;;;7.24;54.53;98685.34;8252219;28;20296;-84
2021/11/24 06:51:57;;;;;;;12.00;9.00;;;;;;;7.22;54.38;98688.84;8252470;28;20293;-83
2021/11/24 06:56:00;;;;;;;13.80;9.60;;;;;;;7.24;54.22;98679.34;8252287;28;20234;-83
2021/11/24 07:00:05;;;;;;;14.17;8.57;;;;;;;7.21;54.46;98685.38;8236140;28;20237;-83
2021/11/24 07:04:08;;;;;;;13.00;9.17;;;;;;;7.28;54.35;98687.88;8251843;28;20230;-83
2021/11/24 07:08:12;;;;;;;13.97;9.07;;;;;;;7.18;54.18;98682.88;8251503;28;20369;-85
2021/11/24 07:12:15;;;;;;;11.47;8.57;;;;;;;7.23;54.52;98677.63;8250663;28;20234;-84
2021/11/24 07:16:19;;;;;;;13.73;9.60;;;;;;;7.07;54.75;98681.41;8251411;28;20238;-84
2021/11/24 07:20:23;;;;;;;12.57;9.93;;;;;;;7.16;55.15;98682.06;8250980;28;20245;-85
2021/11/24 07:24:29;;;;;;;12.03;9.27;;;;;;;7.26;54.85;98682.75;8250602;28;20229;-85
2021/11/24 07:28:32;;;;;;;11.90;8.70;;;;;;;7.37;55.04;98685.13;8251009;28;20234;-86
2021/11/24 07:32:37;;;;;;;13.20;9.07;;;;;;;7.36;54.96;98685.97;8250939;28;20420;-84
2021/11/24 07:36:40;;;;;;;13.97;9.13;;;;;;;7.49;54.99;98679.69;8250240;28;20237;-84
2021/11/24 07:40:43;;;;;;;15.63;8.80;;;;;;;7.57;54.63;98677.81;8251018;28;20239;-85
2021/11/24 07:44:46;;;;;;;16.33;7.97;;;;;;;7.57;54.52;98662.34;8250996;28;20234;-83
2021/11/24 07:48:50;;;;;;;10.27;7.40;;;;;;;7.64;54.52;98666.50;8249537;28;20563;-85
2021/11/24 07:52:55;;;;;;;14.63;7.80;;;;;;;7.69;54.79;98657.81;8250570;28;20238;-85
2021/11/24 07:56:58;;;;;;;14.57;8.27;;;;;;;7.75;54.25;98657.66;8249621;28;20236;-84
2021/11/24 08:01:01;;;;;;;14.13;7.83;;;;;;;7.93;54.08;98661.59;8250637;28;20508;-87
2021/11/24 08:05:07;;;;;;;19.40;8.00;;;;;;;8.14;53.26;98657.66;8250239;28;20428;-88
2021/11/24 08:09:28;;;;;;;17.90;8.13;;;;;;;8.14;56.32;98645.59;8250458;28;20326;-84
2021/11/24 08:13:31;;;;;;;12.17;7.70;;;;;;;8.30;53.31;98643.53;8250261;28;20230;-84
2021/11/24 08:17:35;;;;;;;9.77;7.50;;;;;;;8.39;52.85;98639.84;8250117;28;20234;-84
2021/11/24 08:21:40;;;;;;;12.43;8.10;;;;;;;8.32;53.09;98631.44;8249917;28;20268;-85
2021/11/24 08:25:43;;;;;;;12.53;7.37;;;;;;;8.50;52.99;98619.81;8250493;28;20421;-85
2021/11/24 08:29:46;;;;;;;10.10;7.47;;;;;;;8.67;52.36;98614.22;8250427;28;20237;-86
2021/11/24 08:33:50;;;;;;;8.73;7.33;;;;;;;8.73;52.80;98608.88;8249790;28;20242;-84
2021/11/24 08:37:55;;;;;;;11.93;8.00;;;;;;;8.65;52.30;98608.25;8225994;28;20238;-84
2021/11/24 08:41:58;;;;;;;9.80;7.23;;;;;;;8.75;52.91;98606.25;8223996;28;20263;-85
2021/11/24 08:46:02;;;;;;;14.17;7.87;;;;;;;8.93;52.00;98605.78;8223351;28;20273;-85
2021/11/24 08:50:07;;;;;;;11.33;8.63;;;;;;;8.63;52.82;98596.28;8238209;28;20240;-84
2021/11/24 08:54:13;;;;;;;13.33;8.50;;;;;;;8.77;52.46;98595.00;8255499;28;20261;-85
2021/11/24 08:58:16;;;;;;;12.10;8.10;;;;;;;8.62;52.84;98605.72;8255896;28;20260;-85
2021/11/24 09:02:22;;;;;;;10.87;7.97;;;;;;;8.85;52.79;98605.13;8255539;28;20240;-85
2021/11/24 09:06:26;;;;;;;8.37;7.00;;;;;;;9.03;52.90;98606.38;8238633;28;20250;-85
2021/11/24 09:10:31;;;;;;;9.07;7.03;;;;;;;9.26;52.28;98599.69;8254487;28;20234;-85
2021/11/24 09:14:34;;;;;;;10.30;6.53;;;;;;;9.89;51.13;98596.06;8255229;28;20230;-85
2021/11/24 09:18:42;;;;;;;8.10;5.90;;;;;;;9.92;50.21;98600.31;8255191;28;20564;-84
2021/11/24 09:22:47;;;;;;;8.17;6.60;;;;;;;10.05;49.68;98599.03;8253961;28;20244;-84
2021/11/24 09:26:57;;;;;;;7.37;5.60;;;;;;;10.16;50.52;98598.66;8254784;28;20245;-84
2021/11/24 09:31:01;;;;;;;7.50;5.33;;;;;;;10.50;49.80;98589.81;8254092;28;20234;-84
2021/11/24 09:35:04;;;;;;;7.13;4.90;;;;;;;10.48;49.23;98589.00;8246189;28;20240;-84
2021/11/24 09:39:08;;;;;;;11.07;5.97;;;;;;;10.24;48.88;98575.09;8254636;28;20260;-84
2021/11/24 09:43:13;;;;;;;6.67;4.67;;;;;;;10.65;47.03;98586.69;8254409;28;20234;-84
2021/11/24 09:47:16;;;;;;;5.30;4.70;;;;;;;9.83;49.24;98579.91;8253329;28;20422;-85
2021/11/24 09:51:20;;;;;;;6.87;4.90;;;;;;;10.42;48.63;98561.59;8252924;28;20238;-84
2021/11/24 09:55:23;;;;;;;6.70;5.20;;;;;;;10.42;46.69;98559.00;8253946;28;20251;-85
2021/11/24 09:59:29;;;;;;;8.20;4.67;;;;;;;9.84;48.53;98547.94;8254278;28;20234;-85
2021/11/24 10:03:32;;;;;;;7.53;4.77;;;;;;;10.63;46.58;98544.44;8253333;28;20230;-86
2021/11/24 10:07:35;;;;;;;4.63;3.67;;;;;;;10.57;46.59;98544.66;8246521;28;20454;-85
2021/11/24 10:11:41;;;;;;;4.20;3.80;;;;;;;10.46;47.51;98539.03;8258690;28;20238;-84
2021/11/24 10:15:47;;;;;;;4.60;4.20;;;;;;;10.89;45.92;98527.97;8258626;28;20238;-84
2021/11/24 10:20:01;;;;;;;4.70;3.47;;;;;;;9.94;47.20;98526.91;8258064;28;20567;-85
2021/11/24 10:24:06;;;;;;;3.83;3.43;;;;;;;9.73;48.65;98525.03;8248019;28;20238;-85
2021/11/24 10:28:25;;;;;;;6.97;3.70;;;;;;;9.48;47.82;98504.25;8256975;28;20485;-85
2021/11/24 10:32:29;;;;;;;4.13;3.70;;;;;;;9.72;48.73;98508.63;8257582;28;20238;-84
2021/11/24 10:36:33;;;;;;;5.50;3.53;;;;;;;9.90;48.28;98504.63;8257026;28;20230;-84
2021/11/24 10:40:41;;;;;;;4.13;3.50;;;;;;;9.94;48.00;98487.25;8256963;28;20245;-84
2021/11/24 10:44:46;;;;;;;3.67;3.00;;;;;;;10.28;48.03;98473.13;8254679;28;20244;-84
2021/11/24 10:49:00;;;;;;;5.63;3.30;;;;;;;10.05;47.36;98464.47;8255009;28;20246;-85
2021/11/24 10:53:03;;;;;;;3.47;3.17;;;;;;;10.16;47.80;98462.31;8255336;28;20237;-84
2021/11/24 10:57:09;;;;;;;3.27;2.97;;;;;;;10.33;47.28;98455.75;8253540;28;20402;-84
2021/11/24 11:01:24;;;;;;;5.30;3.07;;;;;;;10.26;47.10;98449.06;8253004;28;20540;-84
2021/11/24 11:05:30;;;;;;;5.90;4.67;;;;;;;10.07;47.62;98438.50;8253245;28;20238;-85
2021/11/24 11:09:33;;;;;;;4.63;4.20;;;;;;;9.97;47.87;98440.56;8252629;28;20422;-85
2021/11/24 11:13:36;;;;;;;8.83;3.27;;;;;;;12.15;58.43;98433.09;8252382;28;20260;-89
2021/11/24 11:17:52;;;;;;;3.43;2.13;;;;;;;11.67;45.74;98419.50;8252550;28;20246;-89
2021/11/24 11:21:57;;;;;;;2.67;1.97;;;;;;;10.38;45.06;98412.41;8252880;28;20238;-85
2021/11/24 11:26:02;;;;;;;2.80;1.80;;;;;;;10.50;45.26;98399.00;8252007;28;20551;-85
2021/11/24 11:30:07;;;;;;;2.10;1.80;;;;;;;10.50;45.14;98390.41;8231468;28;20230;-85
2021/11/24 11:34:10;;;;;;;3.03;1.90;;;;;;;10.20;45.62;98388.00;8249926;28;20410;-85
2021/11/24 11:38:16;;;;;;;2.87;2.40;;;;;;;9.43;47.25;98382.91;8240896;28;20244;-85
2021/11/24 11:42:21;;;;;;;2.73;2.07;;;;;;;10.25;45.82;98367.97;8228787;28;20231;-85
2021/11/24 11:46:46;;;;;;;3.30;2.27;;;;;;;10.28;45.93;98364.41;8244277;28;20238;-85
2021/11/24 11:50:55;;;;;;;2.87;2.30;;;;;;;10.16;45.46;98358.78;8251082;28;20548;-85
2021/11/24 11:55:17;;;;;;;3.17;2.00;;;;;;;9.98;45.86;98351.72;8251722;28;20553;-85
2021/11/24 11:59:22;;;;;;;2.50;2.10;;;;;;;9.70;46.80;98350.09;8250866;28;20230;-84
2021/11/24 12:03:53;;;;;;;2.13;1.80;;;;;;;10.13;45.99;98333.03;8252236;28;20230;-84
2021/11/24 12:08:06;;;;;;;6.40;2.00;;;;;;;10.22;45.63;98325.81;8254260;28;20238;-84
2021/11/24 12:12:13;;;;;;;2.13;1.80;;;;;;;10.28;44.61;98316.09;8253260;28;20230;-85
2021/11/24 12:16:39;;;;;;;2.27;2.03;;;;;;;10.26;44.87;98310.16;8251861;28;20234;-84
2021/11/24 12:20:45;;;;;;;2.60;1.90;;;;;;;9.76;46.22;98298.13;8252190;28;20242;-84
2021/11/24 12:25:04;;;;;;;2.30;2.10;;;;;;;10.35;45.77;98291.69;8220664;28;20234;-83
2021/11/24 12:29:45;;;;;;;2.57;2.00;;;;;;;10.13;45.45;98283.88;8218923;28;20242;-84
2021/11/24 12:33:56;;;;;;;2.83;1.90;;;;;;;10.32;45.03;98270.28;8218921;28;20242;-85
2021/11/24 12:38:00;;;;;;;2.10;2.00;;;;;;;10.33;45.40;98267.59;8221163;28;20408;-84
2021/11/24 12:42:03;;;;;;;2.43;2.07;;;;;;;10.11;44.82;98252.03;8220768;28;20254;-85
2021/11/24 12:46:23;;;;;;;2.43;1.60;;;;;;;10.22;45.78;98255.94;8215900;28;20238;-85
2021/11/24 12:50:27;;;;;;;1.80;1.70;;;;;;;9.82;45.91;98247.09;8224541;28;20235;-85
2021/11/24 12:54:31;;;;;;;3.60;1.97;;;;;;;10.08;45.23;98246.13;8225082;28;20245;-85
2021/11/24 12:58:34;;;;;;;2.37;2.10;;;;;;;10.12;46.05;98242.50;8224572;28;20525;-86
2021/11/24 13:02:39;;;;;;;2.80;2.20;;;;;;;10.58;44.63;98245.94;8222673;28;20234;-85
2021/11/24 13:06:47;;;;;;;2.57;1.80;;;;;;;10.20;45.43;98230.13;8222378;28;20243;-86
2021/11/24 13:11:01;;;;;;;2.43;2.23;;;;;;;10.73;45.17;98224.59;8222298;28;20250;-84
2021/11/24 13:15:07;;;;;;;2.30;1.70;;;;;;;10.53;44.26;98215.03;8252784;28;20226;-85
2021/11/24 13:19:36;;;;;;;4.33;2.00;;;;;;;9.82;45.99;98209.13;8254076;28;20229;-85
2021/11/24 13:23:40;;;;;;;2.83;2.10;;;;;;;10.08;45.48;98200.38;8252622;28;20234;-85
2021/11/24 13:27:48;;;;;;;2.53;2.00;;;;;;;10.10;45.62;98202.91;8257629;28;20234;-85
2021/11/24 13:31:52;;;;;;;2.93;2.63;;;;;;;10.22;45.05;98197.25;8257865;28;20309;-85
2021/11/24 13:35:59;;;;;;;2.87;2.13;;;;;;;10.05;45.20;98191.88;8257489;28;20241;-85
2021/11/24 13:40:02;;;;;;;3.30;2.27;;;;;;;10.69;44.33;98191.13;8258204;28;20252;-85
2021/11/24 13:44:07;;;;;;;3.27;2.60;;;;;;;10.74;44.15;98187.44;8249199;28;20438;-84
2021/11/24 13:48:19;;;;;;;5.20;2.87;;;;;;;9.96;45.78;98181.00;8258364;28;20234;-85
2021/11/24 13:52:24;;;;;;;4.40;4.00;;;;;;;9.92;46.00;98169.09;8258436;28;20241;-85
2021/11/24 13:56:28;;;;;;;5.10;3.67;;;;;;;9.77;46.24;98165.34;8255847;28;21383;-85
2021/11/24 14:00:31;;;;;;;5.03;3.63;;;;;;;9.95;46.12;98163.78;8245611;28;20240;-85
2021/11/24 14:04:35;;;;;;;3.30;3.00;;;;;;;10.04;46.08;98152.25;8256998;28;20628;-84
2021/11/24 14:08:53;;;;;;;5.47;3.50;;;;;;;10.11;45.63;98148.53;8257123;28;20542;-85
2021/11/24 14:12:57;;;;;;;11.30;6.67;;;;;;;10.29;45.60;98139.16;8256292;28;20230;-84
2021/11/24 14:17:02;;;;;;;20.97;9.23;;;;;;;10.47;45.86;98136.75;8257594;28;20237;-85
2021/11/24 14:21:06;;;;;;;21.40;16.47;;;;;;;10.39;45.50;98128.47;8246278;28;20413;-85
2021/11/24 14:25:14;;;;;;;20.20;18.20;;;;;;;10.42;45.72;98124.00;8247206;28;20231;-85
2021/11/24 14:29:18;;;;;;;5.03;4.53;;;;;;;10.15;46.15;98131.13;8249510;28;20230;-85
2021/11/24 14:33:25;;;;;;;7.90;7.10;;;;;;;9.75;47.25;98123.19;8250412;28;20222;-85
2021/11/24 14:37:28;;;;;;;9.27;7.30;;;;;;;9.84;47.21;98124.53;8252551;28;20230;-85
2021/11/24 14:41:47;;;;;;;7.27;5.57;;;;;;;9.94;46.65;98125.91;8253512;28;20296;-85
2021/11/24 14:45:52;;;;;;;10.87;8.70;;;;;;;10.03;47.13;98116.06;8254428;28;20234;-84
2021/11/24 14:49:55;;;;;;;11.67;9.80;;;;;;;10.03;46.61;98106.56;8255999;28;20289;-84
2021/11/24 14:53:59;;;;;;;16.40;14.80;;;;;;;10.05;46.79;98106.50;8256672;28;20226;-85
2021/11/24 14:58:04;;;;;;;10.60;7.60;;;;;;;10.03;47.30;98097.97;8251526;28;20245;-85
2021/11/24 15:02:08;;;;;;;12.20;10.03;;;;;;;10.05;48.12;98109.09;8253402;28;20277;-85
2021/11/24 15:06:12;;;;;;;8.97;7.47;;;;;;;10.09;47.88;98108.06;8255857;28;20246;-85
2021/11/24 15:10:20;;;;;;;6.37;5.70;;;;;;;10.00;48.01;98096.34;8272181;28;20245;-85
2021/11/24 15:14:44;;;;;;;6.90;5.47;;;;;;;9.86;48.42;98094.31;8258516;28;20421;-84
2021/11/24 15:18:48;;;;;;;7.93;4.77;;;;;;;9.75;48.46;98079.22;8258506;28;20462;-84
2021/11/24 15:22:51;;;;;;;13.27;4.50;;;;;;;9.73;48.86;98064.66;8258034;28;20234;-85
2021/11/24 15:26:54;;;;;;;4.47;4.00;;;;;;;9.54;48.98;98065.38;8257619;28;20238;-86
2021/11/24 15:31:00;;;;;;;9.83;4.10;;;;;;;9.61;49.15;98072.88;8258812;28;20238;-86
2021/11/24 15:35:04;;;;;;;5.67;4.13;;;;;;;9.52;48.99;98058.56;8253576;28;20261;-86
2021/11/24 15:39:14;;;;;;;7.63;4.80;;;;;;;9.49;49.00;98061.28;8255710;28;20238;-89
2021/11/24 15:43:17;;;;;;;5.13;4.60;;;;;;;9.53;49.10;98057.66;8254319;28;20240;-87
2021/11/24 15:47:24;;;;;;;8.93;4.47;;;;;;;9.37;49.29;98054.84;8252758;28;20234;-86
2021/11/24 15:51:27;;;;;;;9.53;4.80;;;;;;;9.35;49.64;98057.47;8249615;28;20244;-87
2021/11/24 15:55:30;;;;;;;7.27;4.63;;;;;;;9.25;49.87;98060.47;8252265;28;20296;-88
2021/11/24 15:59:47;;;;;;;6.33;5.07;;;;;;;9.20;49.57;98056.31;8251770;28;20514;-87
2021/11/24 16:03:52;;;;;;;13.43;9.13;;;;;;;9.18;49.86;98046.94;8252125;28;20241;-88
2021/11/24 16:07:56;;;;;;;10.20;6.87;;;;;;;9.13;49.51;98054.00;8234535;28;20241;-86
2021/11/24 16:11:59;;;;;;;13.57;7.40;;;;;;;9.07;49.88;98043.91;8240758;28;20245;-86
2021/11/24 16:16:02;;;;;;;10.27;6.40;;;;;;;9.07;50.04;98044.75;8250388;28;20548;-86
2021/11/24 16:20:10;;;;;;;9.73;6.00;;;;;;;9.01;50.12;98034.66;8226767;28;20529;-86
2021/11/24 16:24:15;;;;;;;9.20;6.20;;;;;;;8.93;50.50;98039.22;8219892;28;20242;-85
2021/11/24 16:28:18;;;;;;;8.20;6.50;;;;;;;8.89;50.36;98025.63;8220127;28;20302;-86
2021/11/24 16:32:22;;;;;;;12.70;8.67;;;;;;;8.94;50.67;98033.19;8204949;28;20243;-86
2021/11/24 16:36:29;;;;;;;14.50;10.73;;;;;;;8.94;50.50;98028.84;8218990;28;20284;-85
2021/11/24 16:40:33;;;;;;;13.03;10.40;;;;;;;8.91;50.76;98021.22;8217459;28;20242;-86
2021/11/24 16:44:36;;;;;;;13.77;8.23;;;;;;;8.89;50.54;98023.03;8218185;28;20234;-85
2021/11/24 16:48:39;;;;;;;12.07;9.90;;;;;;;8.97;51.02;98015.84;8217820;28;20238;-85
2021/11/24 16:52:44;;;;;;;18.87;13.47;;;;;;;8.92;50.70;98015.16;8218205;28;20301;-86
2021/11/24 16:56:47;;;;;;;13.67;10.83;;;;;;;8.94;50.74;98015.94;8219041;28;20420;-86
2021/11/24 17:00:51;;;;;;;12.97;10.63;;;;;;;8.86;50.63;98019.72;8219743;28;20286;-85
2021/11/24 17:04:54;;;;;;;10.50;8.83;;;;;;;8.94;50.97;98007.34;8223347;28;20245;-85
2021/11/24 17:08:59;;;;;;;10.57;8.67;;;;;;;8.94;50.88;98005.59;8223915;28;20235;-85
2021/11/24 17:13:03;;;;;;;20.60;13.97;;;;;;;8.86;51.24;97999.88;8224039;28;20542;-85
2021/11/24 17:17:07;;;;;;;17.03;11.70;;;;;;;8.90;50.96;97988.53;8237352;28;20542;-85
2021/11/24 17:21:10;;;;;;;17.93;13.57;;;;;;;8.94;51.08;97981.53;8232023;28;20243;-85
2021/11/24 17:25:15;;;;;;;11.23;7.80;;;;;;;8.63;51.26;97968.91;8231732;28;20238;-84
2021/11/24 17:29:19;;;;;;;9.00;7.57;;;;;;;8.61;51.89;97974.13;8229967;28;20552;-85
2021/11/24 17:33:23;;;;;;;8.80;7.50;;;;;;;8.99;51.22;97982.19;8229154;28;20235;-84
2021/11/24 17:37:27;;;;;;;9.87;7.57;;;;;;;9.17;50.82;97971.16;8224869;28;20231;-85
2021/11/24 17:41:32;;;;;;;11.00;7.90;;;;;;;8.82;51.81;97967.34;8227660;28;20298;-86
2021/11/24 17:45:35;;;;;;;10.07;8.60;;;;;;;8.96;51.07;97964.22;8234940;28;20567;-86
2021/11/24 17:49:39;;;;;;;10.60;7.97;;;;;;;9.07;50.91;97967.25;8227869;28;20227;-86
2021/11/24 17:53:43;;;;;;;19.53;16.33;;;;;;;8.86;51.45;97962.91;8229886;28;20257;-86
2021/11/24 17:57:48;;;;;;;13.30;11.80;;;;;;;8.88;51.34;97959.34;8229838;28;20251;-86
2021/11/24 18:01:51;;;;;;;12.27;9.67;;;;;;;8.86;51.89;97948.25;8226521;28;20242;-86
2021/11/24 18:05:55;;;;;;;15.43;13.20;;;;;;;8.88;51.70;97945.59;8223726;28;20258;-87
2021/11/24 18:09:58;;;;;;;14.17;9.87;;;;;;;9.02;51.60;97945.91;8221856;28;20239;-86
2021/11/24 18:14:03;;;;;;;11.57;8.40;;;;;;;8.82;51.78;97948.44;8220602;28;20237;-86
2021/11/24 18:18:12;;;;;;;8.97;7.63;;;;;;;8.99;51.42;97954.63;8214689;28;20299;-89
2021/11/24 18:22:15;;;;;;;10.50;8.70;;;;;;;9.01;50.97;97941.66;8224654;28;20226;-89
2021/11/24 18:26:21;;;;;;;10.10;8.40;;;;;;;8.68;51.93;97936.88;8235487;28;20234;-90
2021/11/24 18:30:25;;;;;;;10.47;9.33;;;;;;;8.81;51.85;97929.47;8251009;28;20253;-89
2021/11/24 18:34:28;;;;;;;12.63;9.13;;;;;;;8.91;51.28;97927.38;8253162;28;20564;-89
2021/11/24 18:38:32;;;;;;;9.80;8.53;;;;;;;8.73;51.43;97931.53;8252925;28;20245;-87
2021/11/24 18:42:36;;;;;;;12.20;9.47;;;;;;;8.67;51.18;97926.59;8252946;28;20250;-85
2021/11/24 18:46:42;;;;;;;10.43;9.30;;;;;;;8.67;50.75;97934.34;8252962;28;20234;-86
2021/11/24 18:50:46;;;;;;;14.30;11.90;;;;;;;8.55;50.93;97922.72;8252454;28;20229;-85
2021/11/24 18:54:49;;;;;;;14.13;11.30;;;;;;;8.79;50.71;97919.22;8252487;28;20234;-85
2021/11/24 18:58:52;;;;;;;16.10;13.23;;;;;;;8.76;50.92;97919.34;8252850;28;20413;-86
2021/11/24 19:02:56;;;;;;;13.47;10.43;;;;;;;8.46;51.60;97910.16;8252928;28;20238;-86
2021/11/24 19:07:00;;;;;;;13.43;11.30;;;;;;;8.45;51.08;97900.72;8252194;28;20242;-86
2021/11/24 19:11:03;;;;;;;13.33;12.00;;;;;;;7.82;52.47;97893.44;8219761;28;20593;-85
2021/11/24 19:15:08;;;;;;;13.90;12.07;;;;;;;7.92;52.10;97887.09;8220311;28;20257;-85